createdAt,value
2023-05-17T00:02:48.922Z,5.63
2023-05-17T00:05:54.536Z,11.43
2023-05-17T00:08:58.663Z,6.00
2023-05-17T00:12:02.708Z,9.53
2023-05-17T00:15:07.939Z,8.07
2023-05-17T00:18:12.106Z,5.17
2023-05-17T00:21:17.715Z,8.00
2023-05-17T00:24:21.711Z,5.17
2023-05-17T00:27:25.784Z,6.23
2023-05-17T00:30:29.877Z,5.47
2023-05-17T00:33:33.818Z,7.90
2023-05-17T00:36:39.269Z,5.03
2023-05-17T00:39:43.197Z,6.00
2023-05-17T00:42:47.248Z,9.93
2023-05-17T00:45:52.197Z,6.07
2023-05-17T00:48:57.627Z,6.07
2023-05-17T00:52:03.557Z,5.60
2023-05-17T00:55:08.358Z,7.20
2023-05-17T00:58:13.090Z,6.47
2023-05-17T01:01:17.212Z,7.97
2023-05-17T01:04:21.786Z,8.83
2023-05-17T01:07:27.349Z,5.67
2023-05-17T01:10:39.390Z,6.67
2023-05-17T01:13:53.951Z,6.97
2023-05-17T01:17:01.354Z,7.37
2023-05-17T01:20:11.140Z,6.83
2023-05-17T01:23:32.576Z,9.13
2023-05-17T01:26:44.368Z,9.27
2023-05-17T01:29:51.576Z,9.10
2023-05-17T01:32:59.281Z,9.13
2023-05-17T01:36:03.685Z,9.67
2023-05-17T01:39:08.991Z,11.23
2023-05-17T01:42:22.341Z,7.90
2023-05-17T01:45:30.321Z,8.77
2023-05-17T01:48:41.608Z,6.87
2023-05-17T01:51:50.434Z,9.07
2023-05-17T01:55:01.097Z,9.43
2023-05-17T01:58:09.228Z,6.80
2023-05-17T02:01:15.076Z,14.20
2023-05-17T02:04:20.932Z,13.30
2023-05-17T02:07:25.067Z,6.27
2023-05-17T02:10:32.483Z,12.43
2023-05-17T02:13:38.020Z,6.73
2023-05-17T02:16:42.100Z,9.73
2023-05-17T02:19:46.136Z,11.90
2023-05-17T02:22:50.276Z,6.00
2023-05-17T02:25:54.091Z,7.03
2023-05-17T02:28:59.791Z,13.87
2023-05-17T02:32:03.821Z,7.23
2023-05-17T02:35:08.773Z,10.77
2023-05-17T02:38:12.737Z,8.30
2023-05-17T02:41:18.435Z,12.63
2023-05-17T02:44:26.277Z,12.53
2023-05-17T02:47:30.537Z,12.73
2023-05-17T02:50:34.677Z,10.37
2023-05-17T02:53:38.935Z,12.03
2023-05-17T02:56:44.567Z,7.83
2023-05-17T02:59:50.342Z,8.83
2023-05-17T03:02:54.427Z,7.77
2023-05-17T03:06:02.756Z,10.10
2023-05-17T03:09:07.334Z,13.20
2023-05-17T03:12:12.037Z,10.20
2023-05-17T03:15:18.269Z,13.37
2023-05-17T03:18:23.109Z,11.53
2023-05-17T03:21:27.734Z,10.53
2023-05-17T03:24:32.723Z,9.67
2023-05-17T03:27:38.003Z,15.20
2023-05-17T03:30:44.330Z,14.87
2023-05-17T03:33:48.691Z,8.40
2023-05-17T03:36:52.574Z,12.73
2023-05-17T03:39:56.233Z,10.80
2023-05-17T03:43:00.603Z,12.17
2023-05-17T03:46:06.674Z,14.93
2023-05-17T03:49:10.787Z,15.43
2023-05-17T03:52:15.536Z,15.03
2023-05-17T03:55:19.435Z,12.83
2023-05-17T03:58:23.733Z,13.77
2023-05-17T04:01:29.112Z,13.53
2023-05-17T04:04:33.171Z,13.07
2023-05-17T04:07:37.187Z,10.67
2023-05-17T04:10:42.488Z,11.00
2023-05-17T04:13:46.541Z,15.80
2023-05-17T04:16:52.054Z,15.03
2023-05-17T04:19:56.534Z,11.20
2023-05-17T04:23:01.141Z,12.23
2023-05-17T04:26:07.807Z,12.00
2023-05-17T04:29:15.915Z,13.07
2023-05-17T04:32:21.742Z,14.50
2023-05-17T04:35:26.074Z,15.27
2023-05-17T04:38:32.033Z,16.20
2023-05-17T04:41:36.370Z,11.83
2023-05-17T04:44:42.796Z,16.10
2023-05-17T04:47:50.719Z,18.77
2023-05-17T04:50:55.131Z,16.60
2023-05-17T04:54:01.296Z,17.63
2023-05-17T04:57:07.716Z,17.10
2023-05-17T05:00:34.828Z,16.77
2023-05-17T05:03:43.057Z,17.13
2023-05-17T05:06:49.021Z,15.73
2023-05-17T05:09:53.414Z,18.77
2023-05-17T05:12:59.727Z,14.87
2023-05-17T05:16:05.527Z,16.63
2023-05-17T05:19:11.439Z,19.93
2023-05-17T05:22:16.354Z,23.80
2023-05-17T05:25:21.693Z,17.07
2023-05-17T05:28:25.949Z,22.13
2023-05-17T05:31:31.009Z,37.43
2023-05-17T05:34:40.251Z,27.23
2023-05-17T05:37:44.774Z,30.77
2023-05-17T05:40:49.674Z,28.93
2023-05-17T05:43:53.727Z,24.13
2023-05-17T05:46:57.792Z,24.00
2023-05-17T05:50:06.269Z,26.27
2023-05-17T05:53:18.834Z,22.23
2023-05-17T05:56:28.569Z,19.57
2023-05-17T05:59:32.815Z,24.50
2023-05-17T06:02:37.783Z,20.27
2023-05-17T06:05:43.530Z,16.60
2023-05-17T06:08:47.815Z,18.23
2023-05-17T06:11:54.991Z,22.67
2023-05-17T06:14:59.037Z,20.47
2023-05-17T06:18:03.143Z,14.73
2023-05-17T06:21:08.783Z,15.63
2023-05-17T06:24:12.816Z,21.60
2023-05-17T06:27:16.826Z,17.40
2023-05-17T06:30:21.027Z,14.00
2023-05-17T06:33:25.186Z,14.53
2023-05-17T06:36:32.534Z,16.80
2023-05-17T06:39:36.984Z,15.50
2023-05-17T06:42:41.293Z,29.17
2023-05-17T06:45:45.288Z,24.97
2023-05-17T06:48:51.225Z,21.40
2023-05-17T06:52:02.893Z,23.33
2023-05-17T06:55:07.868Z,18.67
2023-05-17T06:58:12.112Z,18.00
2023-05-17T07:01:16.143Z,28.87
2023-05-17T07:04:20.726Z,19.80
2023-05-17T07:07:26.446Z,22.80
2023-05-17T07:10:30.852Z,23.03
2023-05-17T07:13:35.213Z,31.23
2023-05-17T07:16:39.231Z,39.10
2023-05-17T07:19:43.407Z,25.53
2023-05-17T07:22:49.555Z,23.23
2023-05-17T07:25:53.619Z,26.73
2023-05-17T07:28:57.997Z,28.67
2023-05-17T07:32:01.994Z,25.67
2023-05-17T07:35:06.318Z,23.87
2023-05-17T07:38:12.194Z,21.77
2023-05-17T07:41:17.392Z,19.77
2023-05-17T07:44:22.036Z,24.93
2023-05-17T07:47:26.256Z,26.10
2023-05-17T07:50:31.051Z,27.57
2023-05-17T07:53:36.607Z,31.90
2023-05-17T07:56:40.767Z,31.33
2023-05-17T07:59:44.777Z,34.07
2023-05-17T08:02:48.838Z,27.93
2023-05-17T08:05:52.890Z,28.37
2023-05-17T08:08:58.632Z,31.23
2023-05-17T08:12:02.938Z,28.57
2023-05-17T08:15:07.984Z,30.33
2023-05-17T08:18:12.277Z,30.07
2023-05-17T08:21:16.398Z,31.03
2023-05-17T08:24:21.834Z,29.50
2023-05-17T08:27:27.292Z,26.30
2023-05-17T08:30:31.855Z,28.77
2023-05-17T08:33:36.931Z,28.37
2023-05-17T08:36:41.001Z,31.07
2023-05-17T08:39:46.767Z,31.23
2023-05-17T08:42:52.209Z,32.60
2023-05-17T08:45:58.151Z,28.93
2023-05-17T08:49:04.734Z,32.23
2023-05-17T08:52:11.593Z,32.73
2023-05-17T08:55:18.511Z,31.80
2023-05-17T08:58:27.627Z,30.20
2023-05-17T09:01:33.230Z,28.00
2023-05-17T09:04:38.150Z,32.60
2023-05-17T09:07:42.667Z,32.03
2023-05-17T09:10:48.269Z,30.70
2023-05-17T09:13:52.476Z,25.27
2023-05-17T09:16:58.862Z,24.97
2023-05-17T09:20:03.114Z,28.57
2023-05-17T09:23:09.996Z,23.73
2023-05-17T09:26:15.846Z,25.73
2023-05-17T09:29:21.268Z,26.87
2023-05-17T09:32:25.499Z,25.57
2023-05-17T09:35:31.049Z,27.07
2023-05-17T09:38:35.309Z,29.47
2023-05-17T09:41:47.358Z,30.40
2023-05-17T09:44:54.889Z,42.50
2023-05-17T09:47:59.596Z,33.17
2023-05-17T09:51:03.817Z,36.13
2023-05-17T09:54:08.697Z,35.97
2023-05-17T09:57:14.433Z,33.00
2023-05-17T10:00:19.976Z,32.17
2023-05-17T10:03:24.267Z,35.57
2023-05-17T10:06:44.756Z,29.10
2023-05-17T10:09:51.733Z,33.83
2023-05-17T10:12:57.730Z,29.97
2023-05-17T10:16:03.552Z,26.20
2023-05-17T10:19:08.190Z,23.80
2023-05-17T10:25:23.809Z,18.23
2023-05-17T10:28:29.914Z,19.60
2023-05-17T10:31:35.054Z,20.33
2023-05-17T10:34:40.661Z,21.00
2023-05-17T10:37:44.780Z,20.60
2023-05-17T10:40:50.114Z,16.33
2023-05-17T10:43:57.144Z,17.57
2023-05-17T10:47:02.249Z,22.70
2023-05-17T10:50:13.526Z,23.17
2023-05-17T10:53:17.589Z,21.87
2023-05-17T10:56:23.789Z,24.07
2023-05-17T10:59:32.355Z,24.83
2023-05-17T11:02:41.776Z,21.73
2023-05-17T11:05:48.107Z,23.83
2023-05-17T11:09:15.801Z,25.40
2023-05-17T11:12:32.117Z,17.93
2023-05-17T11:15:39.089Z,17.50
2023-05-17T11:18:49.157Z,24.60
2023-05-17T11:21:53.335Z,21.47
2023-05-17T11:24:59.150Z,22.17
2023-05-17T11:28:09.277Z,21.90
2023-05-17T11:31:14.831Z,22.67
2023-05-17T11:34:20.274Z,21.47
2023-05-17T11:37:28.656Z,24.93
2023-05-17T11:40:33.828Z,23.57
2023-05-17T11:43:38.551Z,23.23
2023-05-17T11:46:45.335Z,25.33
2023-05-17T11:49:54.358Z,25.37
2023-05-17T11:53:00.530Z,24.47
2023-05-17T11:56:05.792Z,25.93
2023-05-17T11:59:10.028Z,24.00
2023-05-17T12:02:28.720Z,27.43
2023-05-17T12:05:32.898Z,26.20
2023-05-17T12:08:38.234Z,28.43
2023-05-17T12:11:43.700Z,28.20
2023-05-17T12:14:48.614Z,25.40
2023-05-17T12:17:56.861Z,27.97
2023-05-17T12:21:01.777Z,25.77
2023-05-17T12:24:06.340Z,27.00
2023-05-17T12:27:10.795Z,32.37
2023-05-17T12:30:18.569Z,28.17
2023-05-17T12:33:24.081Z,27.00
2023-05-17T12:36:30.754Z,30.33
2023-05-17T12:39:34.791Z,24.70
2023-05-17T12:42:41.171Z,24.00
2023-05-17T12:45:45.340Z,29.57
2023-05-17T12:48:52.277Z,24.47
2023-05-17T12:51:56.372Z,26.53
2023-05-17T12:55:01.133Z,29.90
2023-05-17T12:58:05.980Z,25.97
2023-05-17T13:01:14.090Z,32.07
2023-05-17T13:04:20.704Z,39.97
2023-05-17T13:07:26.181Z,34.57
2023-05-17T13:10:30.759Z,38.13
2023-05-17T13:13:35.560Z,35.47
2023-05-17T13:16:40.176Z,35.57
2023-05-17T13:19:45.845Z,39.73
2023-05-17T13:22:50.314Z,36.03
2023-05-17T13:25:54.764Z,29.47
2023-05-17T13:28:58.838Z,26.90
2023-05-17T13:32:03.241Z,27.53
2023-05-17T13:35:09.783Z,26.87
2023-05-17T13:38:13.792Z,26.83
2023-05-17T13:41:17.919Z,23.60
2023-05-17T13:44:22.070Z,24.73
2023-05-17T13:47:26.625Z,26.37
2023-05-17T13:50:32.263Z,24.50
2023-05-17T13:53:36.576Z,21.73
2023-05-17T13:56:40.614Z,21.17
2023-05-17T13:59:45.957Z,23.13
2023-05-17T14:02:50.434Z,21.67
2023-05-17T14:05:56.054Z,23.50
2023-05-17T14:09:01.237Z,26.77
2023-05-17T14:12:05.906Z,29.70
2023-05-17T14:15:11.636Z,30.87
2023-05-17T14:18:15.868Z,32.72
2023-05-17T14:21:21.601Z,31.40
2023-05-17T14:24:25.815Z,28.90
2023-05-17T14:27:29.964Z,31.97
2023-05-17T14:30:34.611Z,29.17
2023-05-17T14:33:38.803Z,27.63
2023-05-17T14:36:44.365Z,31.97
2023-05-17T14:40:05.325Z,28.87
2023-05-17T14:43:10.950Z,26.93
2023-05-17T14:46:15.137Z,25.90
2023-05-17T14:49:19.241Z,28.90
2023-05-17T14:52:24.878Z,26.97
2023-05-17T14:55:29.115Z,24.73
2023-05-17T14:58:33.383Z,24.10
2023-05-17T15:01:37.488Z,25.63
2023-05-17T15:04:41.956Z,25.73
2023-05-17T15:07:47.791Z,26.47
2023-05-17T15:10:52.190Z,23.97
2023-05-17T15:13:56.738Z,22.53
2023-05-17T15:17:00.803Z,17.23
2023-05-17T15:20:05.364Z,21.37
2023-05-17T15:23:11.051Z,25.53
2023-05-17T15:26:15.049Z,20.77
2023-05-17T15:29:19.136Z,24.50
2023-05-17T15:32:23.256Z,24.03
2023-05-17T15:35:28.223Z,26.47
2023-05-17T15:38:33.801Z,22.23
2023-05-17T15:41:37.878Z,24.03
2023-05-17T15:44:41.893Z,23.77
2023-05-17T15:47:46.669Z,23.67
2023-05-17T15:50:50.932Z,25.40
2023-05-17T15:53:57.463Z,24.43
2023-05-17T15:57:01.512Z,26.47
2023-05-17T16:00:06.572Z,24.93
2023-05-17T16:03:10.700Z,28.63
2023-05-17T16:06:16.046Z,27.00
2023-05-17T16:09:21.711Z,25.67
2023-05-17T16:12:25.840Z,29.67
2023-05-17T16:15:29.997Z,30.30
2023-05-17T16:18:34.455Z,28.83
2023-05-17T16:21:39.297Z,28.63
2023-05-17T16:24:44.746Z,30.93
2023-05-17T16:27:49.560Z,30.30
2023-05-17T16:30:54.742Z,33.17
2023-05-17T16:33:58.954Z,29.80
2023-05-17T16:37:04.420Z,31.53
2023-05-17T16:40:11.239Z,30.23
2023-05-17T16:43:16.563Z,31.10
2023-05-17T16:46:24.996Z,30.27
2023-05-17T16:49:30.537Z,30.27
2023-05-17T16:52:34.503Z,29.97
2023-05-17T16:55:40.183Z,32.67
2023-05-17T16:58:44.279Z,34.17
2023-05-17T17:01:48.308Z,34.97
2023-05-17T17:04:52.591Z,28.77
2023-05-17T17:07:56.817Z,32.57
2023-05-17T17:11:02.315Z,31.83
2023-05-17T17:14:07.188Z,25.87
2023-05-17T17:17:11.250Z,28.23
2023-05-17T17:20:15.557Z,27.30
2023-05-17T17:23:19.613Z,30.40
2023-05-17T17:26:25.145Z,26.43
2023-05-17T17:29:29.233Z,31.93
2023-05-17T17:32:33.471Z,29.00
2023-05-17T17:35:37.618Z,27.10
2023-05-17T17:38:41.734Z,29.63
2023-05-17T17:41:47.268Z,27.57
2023-05-17T17:44:51.444Z,28.43
2023-05-17T17:47:55.588Z,28.73
2023-05-17T17:50:59.715Z,30.43
2023-05-17T17:54:05.873Z,25.10
2023-05-17T17:57:11.400Z,27.33
2023-05-17T18:00:16.541Z,25.90
2023-05-17T18:03:20.604Z,27.90
2023-05-17T18:06:25.109Z,24.00
2023-05-17T18:09:29.128Z,26.60
2023-05-17T18:12:34.816Z,26.20
2023-05-17T18:15:40.312Z,26.27
2023-05-17T18:18:44.662Z,25.90
2023-05-17T18:21:50.585Z,29.97
2023-05-17T18:24:54.716Z,30.53
2023-05-17T18:28:00.227Z,31.37
2023-05-17T18:31:04.311Z,27.03
2023-05-17T18:34:08.400Z,30.43
2023-05-17T18:37:12.420Z,33.57
2023-05-17T18:40:16.838Z,33.20
2023-05-17T18:43:22.335Z,34.13
2023-05-17T18:46:26.569Z,34.97
2023-05-17T18:49:30.589Z,36.63
2023-05-17T18:52:34.751Z,34.07
2023-05-17T18:55:38.855Z,36.47
2023-05-17T18:58:46.197Z,37.80
2023-05-17T19:01:50.704Z,33.73
2023-05-17T19:04:54.734Z,50.77
2023-05-17T19:07:58.776Z,43.37
2023-05-17T19:11:04.419Z,40.57
2023-05-17T19:14:09.854Z,35.30
2023-05-17T19:17:14.130Z,33.80
2023-05-17T19:20:18.338Z,33.13
2023-05-17T19:23:23.079Z,35.60
2023-05-17T19:26:27.260Z,36.87
2023-05-17T19:29:33.369Z,39.10
2023-05-17T19:32:38.461Z,36.47
2023-05-17T19:35:42.625Z,33.50
2023-05-17T19:38:46.714Z,36.13
2023-05-17T19:41:50.983Z,39.50
2023-05-17T19:44:56.520Z,36.40
2023-05-17T19:48:00.690Z,38.13
2023-05-17T19:51:04.922Z,38.03
2023-05-17T19:54:08.924Z,36.20
2023-05-17T19:57:13.010Z,34.80
2023-05-17T20:00:19.402Z,38.07
2023-05-17T20:03:23.494Z,37.80
2023-05-17T20:06:27.653Z,40.57
2023-05-17T20:09:32.442Z,39.80
2023-05-17T20:12:36.539Z,40.60
2023-05-17T20:15:42.179Z,37.40
2023-05-17T20:18:46.870Z,45.00
2023-05-17T20:21:50.930Z,43.20
2023-05-17T20:24:57.174Z,41.70
2023-05-17T20:28:02.110Z,41.70
2023-05-17T20:31:07.660Z,41.83
2023-05-17T20:34:12.276Z,41.30
2023-05-17T20:37:16.407Z,40.80
2023-05-17T20:40:21.226Z,38.13
2023-05-17T20:43:29.117Z,42.80
2023-05-17T20:46:35.764Z,43.17
2023-05-17T20:49:40.026Z,38.87
2023-05-17T20:52:44.169Z,37.17
2023-05-17T20:55:48.154Z,39.83
2023-05-17T20:58:52.191Z,32.53
2023-05-17T21:01:57.964Z,36.23
2023-05-17T21:05:03.642Z,32.70
2023-05-17T21:08:08.833Z,32.10
2023-05-17T21:11:15.559Z,29.17
2023-05-17T21:14:19.630Z,25.70
2023-05-17T21:17:25.171Z,24.57
2023-05-17T21:20:29.429Z,27.03
2023-05-17T21:23:33.589Z,21.60
2023-05-17T21:26:40.562Z,19.67
2023-05-17T21:29:45.389Z,15.87
2023-05-17T21:32:50.963Z,18.23
2023-05-17T21:35:55.077Z,19.57
2023-05-17T21:38:59.039Z,14.23
2023-05-17T21:42:03.470Z,14.53
2023-05-17T21:45:08.614Z,16.70
2023-05-17T21:48:14.279Z,14.83
2023-05-17T21:51:18.388Z,11.87
2023-05-17T21:54:22.514Z,14.53
2023-05-17T21:57:26.589Z,11.80
2023-05-17T22:00:30.959Z,13.07
2023-05-17T22:03:36.853Z,16.10
2023-05-17T22:06:40.970Z,16.30
2023-05-17T22:09:45.896Z,13.37
2023-05-17T22:12:50.557Z,12.80
2023-05-17T22:15:57.818Z,13.53
2023-05-17T22:19:04.175Z,12.50
2023-05-17T22:22:08.785Z,15.73
2023-05-17T22:25:13.572Z,13.27
2023-05-17T22:28:18.888Z,10.90
2023-05-17T22:31:23.132Z,14.37
2023-05-17T22:34:28.794Z,14.97
2023-05-17T22:37:33.191Z,15.27
2023-05-17T22:40:37.414Z,13.50
2023-05-17T22:43:42.061Z,11.67
2023-05-17T22:46:47.002Z,15.17
2023-05-17T22:49:53.279Z,12.73
2023-05-17T22:52:58.951Z,13.27
2023-05-17T22:56:02.894Z,9.97
2023-05-17T22:59:06.890Z,11.20
2023-05-17T23:02:11.150Z,11.10
2023-05-17T23:05:16.652Z,11.33
2023-05-17T23:08:22.661Z,9.23
2023-05-17T23:11:26.611Z,11.53
2023-05-17T23:14:30.597Z,13.00
2023-05-17T23:17:35.969Z,10.57
2023-05-17T23:20:42.433Z,9.23
2023-05-17T23:23:47.651Z,9.53
2023-05-17T23:26:51.587Z,10.47
2023-05-17T23:29:56.768Z,10.90
2023-05-17T23:33:02.919Z,12.57
2023-05-17T23:36:09.209Z,9.47
2023-05-17T23:39:13.234Z,11.00
2023-05-17T23:42:17.158Z,12.20
2023-05-17T23:45:21.541Z,12.43
2023-05-17T23:48:25.981Z,10.17
2023-05-17T23:51:33.528Z,15.97
2023-05-17T23:54:37.553Z,10.53
2023-05-17T23:57:42.716Z,11.87
